Time;durP1;ratioP1;P1;durP2;ratioP2;P2;SDS_P1;SDS_P2;PMS_P1;PMS_P2;Temp;Humidity;BMP_temperature;BMP_pressure;BME280_temperature;BME280_humidity;BME280_pressure;Samples;Min_cycle;Max_cycle;Signal;HPM_P1;HPM_P2
2023/04/22 00:00:08;;;;;;;4.68;2.35;;;;;;;;;;5090008;28;20087;-63
2023/04/22 00:02:36;;;;;;;2.58;1.80;;;;;;;;;;5094660;28;20028;-63
2023/04/22 00:05:03;;;;;;;2.92;1.98;;;;;;;;;;5095319;28;20024;-64
2023/04/22 00:07:30;;;;;;;2.28;1.70;;;;;;;;;;5095275;28;20428;-63
2023/04/22 00:09:57;;;;;;;4.00;2.30;;;;;;;;;;5095061;28;20059;-63
2023/04/22 00:12:24;;;;;;;9.07;3.13;;;;;;;;;;5095086;28;20051;-63
2023/04/22 00:14:51;;;;;;;2.60;1.67;;;;;;;;;;5090448;28;20052;-64
2023/04/22 00:17:17;;;;;;;8.88;2.97;;;;;;;;;;5089598;28;20093;-63
2023/04/22 00:19:44;;;;;;;3.25;2.28;;;;;;;;;;5089854;28;20416;-63
2023/04/22 00:22:11;;;;;;;3.47;1.98;;;;;;;;;;5089917;28;20036;-63
2023/04/22 00:24:38;;;;;;;14.55;2.40;;;;;;;;;;5093359;28;20021;-63
2023/04/22 00:27:04;;;;;;;5.00;2.45;;;;;;;;;;5094811;28;20030;-63
2023/04/22 00:29:31;;;;;;;6.20;2.00;;;;;;;;;;5094684;28;20136;-63
2023/04/22 00:31:58;;;;;;;3.00;2.03;;;;;;;;;;5094539;28;20024;-63
2023/04/22 00:34:25;;;;;;;4.15;1.92;;;;;;;;;;5093945;28;20067;-63
2023/04/22 00:36:51;;;;;;;5.50;2.33;;;;;;;;;;5090756;28;20028;-62
2023/04/22 00:39:18;;;;;;;2.40;1.83;;;;;;;;;;5089640;28;20070;-63
2023/04/22 00:41:46;;;;;;;11.55;2.90;;;;;;;;;;5089593;28;20024;-64
2023/04/22 00:44:12;;;;;;;6.35;2.72;;;;;;;;;;5089582;28;20028;-63
2023/04/22 00:46:39;;;;;;;7.18;2.80;;;;;;;;;;5092069;28;20054;-63
2023/04/22 00:49:07;;;;;;;14.02;3.10;;;;;;;;;;5094278;28;20020;-63
2023/04/22 00:51:34;;;;;;;8.63;3.63;;;;;;;;;;5094293;28;20163;-63
2023/04/22 00:54:00;;;;;;;14.90;3.55;;;;;;;;;;5093991;28;20069;-65
2023/04/22 00:56:28;;;;;;;6.40;3.03;;;;;;;;;;5094451;28;20016;-63
2023/04/22 00:58:58;;;;;;;14.68;3.03;;;;;;;;;;5091518;28;20093;-63
2023/04/22 01:01:24;;;;;;;9.98;3.67;;;;;;;;;;5089342;28;20016;-62
2023/04/22 01:03:51;;;;;;;3.58;2.40;;;;;;;;;;5089216;28;20018;-62
2023/04/22 01:06:22;;;;;;;5.68;3.00;;;;;;;;;;5089073;28;20038;-63
2023/04/22 01:08:49;;;;;;;3.95;2.78;;;;;;;;;;5091350;28;20016;-63
2023/04/22 01:11:16;;;;;;;3.22;2.13;;;;;;;;;;5093662;28;20420;-63
2023/04/22 01:13:42;;;;;;;5.30;2.85;;;;;;;;;;5094065;28;20024;-63
2023/04/22 01:16:09;;;;;;;5.03;3.07;;;;;;;;;;5094128;28;20081;-62
2023/04/22 01:18:36;;;;;;;5.43;3.23;;;;;;;;;;5093975;28;20427;-62
2023/04/22 01:21:03;;;;;;;4.83;3.40;;;;;;;;;;5091652;28;20024;-64
2023/04/22 01:23:30;;;;;;;4.97;3.47;;;;;;;;;;5089010;28;20021;-62
2023/04/22 01:25:57;;;;;;;3.20;2.77;;;;;;;;;;5088742;28;20034;-63
2023/04/22 01:28:24;;;;;;;5.00;3.20;;;;;;;;;;5088727;28;20028;-62
2023/04/22 01:30:51;;;;;;;5.87;2.90;;;;;;;;;;5090004;28;20039;-62
2023/04/22 01:33:18;;;;;;;13.20;3.63;;;;;;;;;;5093840;28;20435;-62
2023/04/22 01:35:45;;;;;;;7.80;3.47;;;;;;;;;;5093668;28;20497;-62
2023/04/22 01:38:12;;;;;;;4.40;3.00;;;;;;;;;;5093767;28;20028;-62
2023/04/22 01:40:39;;;;;;;4.87;3.03;;;;;;;;;;5093460;28;20055;-63
2023/04/22 01:43:06;;;;;;;4.43;3.00;;;;;;;;;;5092159;28;20024;-62
2023/04/22 01:45:33;;;;;;;7.30;2.97;;;;;;;;;;5087726;28;20024;-62
2023/04/22 01:48:00;;;;;;;4.80;3.10;;;;;;;;;;5087879;28;20414;-63
2023/04/22 01:50:26;;;;;;;8.70;3.27;;;;;;;;;;5088420;28;20108;-63
2023/04/22 01:52:53;;;;;;;6.63;3.33;;;;;;;;;;5088766;28;20020;-63
2023/04/22 01:55:20;;;;;;;7.30;3.37;;;;;;;;;;5093471;28;20104;-62
2023/04/22 01:57:47;;;;;;;3.83;2.90;;;;;;;;;;5093053;28;20047;-63
2023/04/22 02:00:14;;;;;;;8.20;3.33;;;;;;;;;;5093107;28;20020;-63
2023/04/22 02:02:41;;;;;;;8.23;2.27;;;;;;;;;;5093078;28;20020;-63
2023/04/22 02:05:08;;;;;;;4.20;3.10;;;;;;;;;;5092389;28;20032;-63
2023/04/22 02:07:35;;;;;;;6.53;3.10;;;;;;;;;;5088018;28;20024;-63
2023/04/22 02:10:03;;;;;;;4.90;2.87;;;;;;;;;;5087926;28;20040;-63
2023/04/22 02:12:31;;;;;;;7.77;3.57;;;;;;;;;;5088008;28;20052;-63
2023/04/22 02:14:58;;;;;;;3.47;2.30;;;;;;;;;;5087776;28;20016;-63
2023/04/22 02:17:24;;;;;;;8.23;2.70;;;;;;;;;;5092710;28;20020;-62
2023/04/22 02:19:51;;;;;;;2.37;1.93;;;;;;;;;;5092911;28;20065;-62
2023/04/22 02:22:18;;;;;;;3.13;2.27;;;;;;;;;;5092961;28;20055;-62
2023/04/22 02:24:45;;;;;;;9.07;2.60;;;;;;;;;;5092732;28;20024;-62
2023/04/22 02:27:11;;;;;;;3.93;2.33;;;;;;;;;;5092996;28;20059;-62
2023/04/22 02:29:38;;;;;;;3.33;2.30;;;;;;;;;;5087922;28;20383;-62
2023/04/22 02:32:05;;;;;;;2.73;2.33;;;;;;;;;;5087652;28;20517;-63
2023/04/22 02:34:32;;;;;;;4.00;2.30;;;;;;;;;;5087678;28;20039;-62
2023/04/22 02:36:58;;;;;;;16.33;2.67;;;;;;;;;;5087640;28;20030;-62
2023/04/22 02:39:25;;;;;;;5.37;2.87;;;;;;;;;;5091499;28;20024;-62
2023/04/22 02:41:53;;;;;;;4.60;2.53;;;;;;;;;;5092124;28;20016;-62
2023/04/22 02:44:20;;;;;;;6.97;3.63;;;;;;;;;;5092691;28;20462;-61
2023/04/22 02:46:47;;;;;;;6.27;3.40;;;;;;;;;;5092491;28;20024;-61
2023/04/22 02:49:13;;;;;;;9.03;3.30;;;;;;;;;;5092416;28;20028;-61
2023/04/22 02:51:40;;;;;;;7.97;2.93;;;;;;;;;;5088604;28;20060;-61
2023/04/22 02:54:07;;;;;;;14.07;3.67;;;;;;;;;;5087656;28;20028;-61
2023/04/22 02:56:33;;;;;;;4.97;3.67;;;;;;;;;;5087541;28;20454;-61
2023/04/22 02:59:00;;;;;;;4.80;3.37;;;;;;;;;;5090966;28;20073;-62
2023/04/22 03:01:27;;;;;;;5.90;2.87;;;;;;;;;;5094681;28;20027;-62
2023/04/22 03:03:54;;;;;;;4.23;3.30;;;;;;;;;;5096602;28;20028;-62
2023/04/22 03:06:21;;;;;;;9.73;3.20;;;;;;;;;;5096332;28;20024;-61
2023/04/22 03:08:48;;;;;;;4.03;2.73;;;;;;;;;;5096264;28;20478;-61
2023/04/22 03:11:14;;;;;;;3.70;3.00;;;;;;;;;;5096367;28;20378;-61
2023/04/22 03:13:41;;;;;;;10.03;3.90;;;;;;;;;;5093349;28;20420;-61
2023/04/22 03:16:08;;;;;;;5.27;3.83;;;;;;;;;;5091509;28;20442;-61
2023/04/22 03:18:34;;;;;;;6.27;3.80;;;;;;;;;;5090848;28;20489;-61
2023/04/22 03:21:01;;;;;;;6.83;3.97;;;;;;;;;;5091270;28;20450;-61
2023/04/22 03:23:28;;;;;;;9.00;5.17;;;;;;;;;;5093330;28;20036;-61
2023/04/22 03:25:55;;;;;;;8.13;3.87;;;;;;;;;;5096175;28;20024;-61
2023/04/22 03:28:21;;;;;;;10.53;4.20;;;;;;;;;;5096201;28;20091;-61
2023/04/22 03:30:48;;;;;;;25.83;5.33;;;;;;;;;;5096107;28;20032;-61
2023/04/22 03:33:15;;;;;;;9.77;4.07;;;;;;;;;;5096189;28;20110;-61
2023/04/22 03:35:42;;;;;;;4.17;3.17;;;;;;;;;;5093414;28;20093;-61
2023/04/22 03:38:09;;;;;;;5.60;3.97;;;;;;;;;;5090861;28;20035;-61
2023/04/22 03:40:35;;;;;;;14.73;4.37;;;;;;;;;;5090750;28;20489;-61
2023/04/22 03:43:05;;;;;;;9.80;3.97;;;;;;;;;;5090932;28;20051;-63
2023/04/22 03:45:32;;;;;;;4.67;2.93;;;;;;;;;;5092522;28;20031;-61
2023/04/22 03:47:59;;;;;;;9.63;2.13;;;;;;;;;;5095890;28;20027;-61
2023/04/22 03:50:25;;;;;;;3.00;2.00;;;;;;;;;;5095787;28;20051;-61
2023/04/22 03:52:52;;;;;;;1.97;1.33;;;;;;;;;;5095587;28;20382;-61
2023/04/22 03:55:19;;;;;;;2.37;1.37;;;;;;;;;;5095338;28;20024;-60
2023/04/22 03:57:46;;;;;;;3.53;1.83;;;;;;;;;;5094007;28;20024;-60
2023/04/22 04:00:13;;;;;;;2.80;1.63;;;;;;;;;;5090641;28;20114;-61
2023/04/22 04:02:40;;;;;;;2.80;1.50;;;;;;;;;;5090472;28;20028;-61
2023/04/22 04:05:08;;;;;;;7.60;1.50;;;;;;;;;;5090253;28;20020;-61
2023/04/22 04:07:35;;;;;;;3.67;1.63;;;;;;;;;;5090144;28;20356;-60
2023/04/22 04:13:05;;;;;;;1.37;1.10;;;;;;;;;;5034846;28;20614;-62
2023/04/22 04:15:34;;;;;;;1.00;0.80;;;;;;;;;;5034645;28;20060;-62
2023/04/22 04:18:01;;;;;;;4.00;1.43;;;;;;;;;;5035197;28;20104;-62
2023/04/22 04:20:28;;;;;;;1.77;1.23;;;;;;;;;;5035082;28;20083;-61
2023/04/22 04:22:55;;;;;;;5.37;1.60;;;;;;;;;;5031946;28;20018;-61
2023/04/22 04:25:22;;;;;;;2.33;1.30;;;;;;;;;;5030018;28;20029;-62
2023/04/22 04:27:50;;;;;;;2.63;1.07;;;;;;;;;;5029673;28;20040;-62
2023/04/22 04:30:18;;;;;;;0.73;0.67;;;;;;;;;;5029926;28;20033;-62
2023/04/22 04:32:45;;;;;;;3.80;1.10;;;;;;;;;;5031861;28;20030;-62
2023/04/22 04:35:15;;;;;;;1.47;1.10;;;;;;;;;;5034775;28;20033;-62
2023/04/22 04:37:45;;;;;;;1.00;0.60;;;;;;;;;;5034770;28;20028;-61
2023/04/22 04:40:12;;;;;;;2.80;1.67;;;;;;;;;;5034537;28;20116;-62
2023/04/22 04:42:39;;;;;;;1.60;1.03;;;;;;;;;;5034520;28;20080;-62
2023/04/22 04:45:06;;;;;;;1.23;0.97;;;;;;;;;;5031819;28;20026;-61
2023/04/22 04:47:33;;;;;;;1.27;1.00;;;;;;;;;;5029387;28;20049;-61
2023/04/22 04:50:03;;;;;;;1.00;0.90;;;;;;;;;;5029260;28;20056;-61
2023/04/22 04:52:30;;;;;;;2.00;1.30;;;;;;;;;;5029424;28;20334;-61
2023/04/22 04:54:57;;;;;;;1.00;0.90;;;;;;;;;;5031325;28;20022;-61
2023/04/22 04:57:24;;;;;;;0.80;0.70;;;;;;;;;;5034288;28;20029;-61
2023/04/22 04:59:51;;;;;;;1.10;0.80;;;;;;;;;;5034199;28;20067;-62
2023/04/22 05:02:17;;;;;;;2.90;1.20;;;;;;;;;;5034190;28;20037;-62
2023/04/22 05:04:45;;;;;;;1.67;1.27;;;;;;;;;;5034142;28;20028;-62
2023/04/22 05:07:12;;;;;;;1.47;1.13;;;;;;;;;;5031364;28;20033;-62
2023/04/22 05:09:39;;;;;;;2.03;1.47;;;;;;;;;;5028903;28;20530;-62
2023/04/22 05:12:05;;;;;;;2.63;1.30;;;;;;;;;;5028934;28;20509;-62
2023/04/22 05:14:32;;;;;;;1.40;1.03;;;;;;;;;;5028911;28;20114;-62
2023/04/22 05:16:59;;;;;;;1.47;1.13;;;;;;;;;;5030390;28;20037;-62
2023/04/22 05:19:26;;;;;;;4.13;1.30;;;;;;;;;;5033825;28;20030;-62
2023/04/22 05:21:52;;;;;;;2.03;1.40;;;;;;;;;;5033470;28;20049;-62
2023/04/22 05:24:20;;;;;;;1.80;1.13;;;;;;;;;;5033744;28;20419;-62
2023/04/22 05:26:47;;;;;;;1.80;1.40;;;;;;;;;;5033822;28;20375;-62
2023/04/22 05:29:13;;;;;;;2.27;1.73;;;;;;;;;;5031988;28;20770;-62
2023/04/22 05:31:40;;;;;;;3.23;2.00;;;;;;;;;;5028649;28;20013;-62
2023/04/22 05:34:07;;;;;;;3.17;1.70;;;;;;;;;;5028684;28;20029;-62
2023/04/22 05:36:33;;;;;;;1.93;1.40;;;;;;;;;;5028373;28;20538;-62
2023/04/22 05:39:00;;;;;;;2.77;1.30;;;;;;;;;;5029439;28;20017;-63
2023/04/22 05:41:27;;;;;;;3.77;1.53;;;;;;;;;;5033448;28;20503;-62
2023/04/22 05:43:54;;;;;;;1.90;1.30;;;;;;;;;;5033132;28;20079;-62
2023/04/22 05:46:20;;;;;;;5.20;1.87;;;;;;;;;;5033363;28;20036;-62
2023/04/22 05:48:48;;;;;;;2.13;1.57;;;;;;;;;;5033365;28;20022;-62
2023/04/22 05:51:14;;;;;;;2.00;1.67;;;;;;;;;;5032369;28;20033;-62
2023/04/22 05:53:41;;;;;;;5.23;2.10;;;;;;;;;;5028079;28;20553;-62
2023/04/22 05:56:08;;;;;;;4.57;1.87;;;;;;;;;;5028362;28;20041;-62
2023/04/22 05:58:36;;;;;;;2.20;1.63;;;;;;;;;;5028328;28;20475;-62
2023/04/22 06:01:03;;;;;;;3.70;2.50;;;;;;;;;;5027952;28;20372;-63
2023/04/22 06:03:30;;;;;;;3.47;2.23;;;;;;;;;;5033294;28;20024;-62
2023/04/22 06:05:57;;;;;;;5.40;3.20;;;;;;;;;;5033076;28;20481;-63
2023/04/22 06:08:24;;;;;;;1.87;1.63;;;;;;;;;;5033058;28;20029;-62
2023/04/22 06:10:50;;;;;;;4.67;2.23;;;;;;;;;;5032582;28;20109;-62
2023/04/22 06:13:17;;;;;;;3.27;2.20;;;;;;;;;;5032478;28;20084;-62
2023/04/22 06:15:44;;;;;;;19.10;2.80;;;;;;;;;;5027794;28;20383;-62
2023/04/22 06:18:11;;;;;;;5.43;2.63;;;;;;;;;;5027637;28;20029;-62
2023/04/22 06:20:37;;;;;;;4.70;3.07;;;;;;;;;;5028101;28;20044;-62
2023/04/22 06:23:04;;;;;;;7.07;2.33;;;;;;;;;;5027726;28;20029;-62
2023/04/22 06:25:31;;;;;;;2.53;2.07;;;;;;;;;;5032372;28;20415;-62
2023/04/22 06:27:58;;;;;;;2.23;1.70;;;;;;;;;;5032727;28;20113;-62
2023/04/22 06:30:26;;;;;;;3.53;1.93;;;;;;;;;;5032543;28;20472;-62
2023/04/22 06:32:56;;;;;;;4.20;2.20;;;;;;;;;;5032131;28;20083;-62
2023/04/22 06:35:23;;;;;;;3.20;2.00;;;;;;;;;;5032299;28;20025;-62
2023/04/22 06:37:49;;;;;;;2.83;1.63;;;;;;;;;;5027579;28;20052;-62
2023/04/22 06:40:16;;;;;;;3.70;1.97;;;;;;;;;;5027577;28;20475;-61
2023/04/22 06:42:43;;;;;;;2.03;1.40;;;;;;;;;;5027614;28;20033;-61
2023/04/22 06:45:11;;;;;;;3.50;1.87;;;;;;;;;;5027374;28;20477;-61
2023/04/22 06:47:39;;;;;;;5.73;2.63;;;;;;;;;;5031601;28;20036;-62
2023/04/22 06:50:09;;;;;;;1.93;1.63;;;;;;;;;;5032451;28;20064;-61
2023/04/22 06:52:36;;;;;;;2.20;1.60;;;;;;;;;;5032275;28;20071;-61
2023/04/22 06:55:06;;;;;;;3.73;1.90;;;;;;;;;;5032431;28;20519;-61
2023/04/22 06:57:33;;;;;;;2.20;1.63;;;;;;;;;;5032325;28;20383;-61
2023/04/22 06:59:59;;;;;;;1.37;1.03;;;;;;;;;;5027606;28;20021;-61
2023/04/22 07:02:26;;;;;;;1.90;1.43;;;;;;;;;;5027253;28;20033;-61
2023/04/22 07:04:53;;;;;;;4.57;2.47;;;;;;;;;;5027389;28;20376;-61
2023/04/22 07:07:20;;;;;;;2.87;2.30;;;;;;;;;;5027356;28;20032;-61
2023/04/22 07:09:46;;;;;;;3.03;1.83;;;;;;;;;;5030654;28;20030;-61
2023/04/22 07:12:13;;;;;;;2.33;1.50;;;;;;;;;;5032209;28;20044;-61
2023/04/22 07:14:43;;;;;;;2.30;1.80;;;;;;;;;;5032289;28;20148;-61
2023/04/22 07:17:11;;;;;;;3.90;2.17;;;;;;;;;;5032216;28;20103;-61
2023/04/22 07:19:38;;;;;;;6.10;3.27;;;;;;;;;;5032271;28;20483;-61
2023/04/22 07:22:05;;;;;;;1.93;1.53;;;;;;;;;;5028046;28;20029;-61
2023/04/22 07:24:32;;;;;;;2.37;1.77;;;;;;;;;;5027227;28;20561;-62
2023/04/22 07:27:00;;;;;;;2.27;1.70;;;;;;;;;;5027256;28;20068;-61
2023/04/22 07:29:27;;;;;;;3.30;2.53;;;;;;;;;;5027060;28;20350;-61
2023/04/22 07:31:53;;;;;;;2.63;1.93;;;;;;;;;;5030490;28;20107;-61
2023/04/22 07:34:20;;;;;;;3.03;1.83;;;;;;;;;;5032150;28;20033;-61
2023/04/22 07:36:47;;;;;;;2.70;2.03;;;;;;;;;;5031898;28;20379;-61
2023/04/22 07:39:13;;;;;;;3.00;2.03;;;;;;;;;;5032094;28;20033;-61
2023/04/22 07:41:40;;;;;;;2.87;1.97;;;;;;;;;;5031928;28;20017;-61
2023/04/22 07:44:09;;;;;;;3.93;2.50;;;;;;;;;;5030262;28;20037;-61
2023/04/22 07:46:36;;;;;;;3.47;2.07;;;;;;;;;;5030649;28;20056;-62
2023/04/22 07:49:02;;;;;;;3.03;2.37;;;;;;;;;;5030705;28;20125;-62
2023/04/22 07:51:29;;;;;;;12.03;2.00;;;;;;;;;;5030525;28;20057;-61
2023/04/22 07:53:56;;;;;;;3.57;2.10;;;;;;;;;;5033085;28;20025;-62
2023/04/22 07:56:22;;;;;;;2.60;2.03;;;;;;;;;;5035430;28;20036;-62
2023/04/22 07:58:49;;;;;;;4.97;2.43;;;;;;;;;;5035386;28;20013;-62
2023/04/22 08:01:16;;;;;;;4.20;2.57;;;;;;;;;;5035358;28;20029;-61
2023/04/22 08:03:43;;;;;;;2.30;1.60;;;;;;;;;;5035330;28;20438;-62
2023/04/22 08:06:09;;;;;;;1.20;1.10;;;;;;;;;;5032350;28;20498;-62
2023/04/22 08:08:36;;;;;;;2.67;2.13;;;;;;;;;;5030243;28;20025;-61
2023/04/22 08:11:03;;;;;;;2.83;1.67;;;;;;;;;;5029731;28;20073;-62
2023/04/22 08:13:30;;;;;;;2.97;1.77;;;;;;;;;;5030133;28;20035;-62
2023/04/22 08:15:57;;;;;;;2.17;1.57;;;;;;;;;;5032549;28;20032;-61
2023/04/22 08:18:23;;;;;;;2.37;1.90;;;;;;;;;;5034788;28;20032;-61
2023/04/22 08:20:50;;;;;;;4.50;2.37;;;;;;;;;;5035068;28;20056;-61
2023/04/22 08:23:17;;;;;;;2.70;2.17;;;;;;;;;;5035221;28;20084;-61
2023/04/22 08:25:44;;;;;;;3.73;2.13;;;;;;;;;;5034876;28;20021;-62
2023/04/22 08:28:10;;;;;;;2.37;1.60;;;;;;;;;;5032340;28;20029;-61
2023/04/22 08:30:37;;;;;;;2.73;1.70;;;;;;;;;;5029842;28;20030;-61
2023/04/22 08:33:04;;;;;;;3.60;1.87;;;;;;;;;;5029772;28;20060;-62
2023/04/22 08:35:31;;;;;;;2.77;1.57;;;;;;;;;;5029541;28;20028;-61
2023/04/22 08:37:58;;;;;;;2.37;1.87;;;;;;;;;;5031312;28;20021;-61
2023/04/22 08:40:24;;;;;;;2.47;1.63;;;;;;;;;;5034787;28;20017;-61
2023/04/22 08:42:51;;;;;;;1.77;1.40;;;;;;;;;;5034832;28;20134;-61
2023/04/22 08:45:18;;;;;;;3.00;2.10;;;;;;;;;;5034516;28;20375;-61
2023/04/22 08:47:45;;;;;;;2.20;1.43;;;;;;;;;;5034506;28;20034;-61
2023/04/22 08:50:12;;;;;;;4.00;1.67;;;;;;;;;;5032545;28;20446;-62
2023/04/22 08:52:39;;;;;;;5.70;1.93;;;;;;;;;;5029114;28;20522;-61
2023/04/22 08:55:06;;;;;;;2.37;2.00;;;;;;;;;;5028942;28;20472;-61
2023/04/22 08:57:33;;;;;;;3.87;2.20;;;;;;;;;;5029378;28;20375;-61
2023/04/22 09:00:00;;;;;;;5.57;2.43;;;;;;;;;;5030355;28;20029;-61
2023/04/22 09:02:29;;;;;;;4.10;2.83;;;;;;;;;;5033988;28;20028;-61
2023/04/22 09:04:55;;;;;;;5.40;3.23;;;;;;;;;;5034042;28;20092;-61
2023/04/22 09:07:24;;;;;;;6.00;2.70;;;;;;;;;;5034136;28;20512;-61
2023/04/22 09:09:50;;;;;;;3.43;2.50;;;;;;;;;;5034024;28;20501;-61
2023/04/22 09:12:18;;;;;;;2.57;2.03;;;;;;;;;;5032363;28;20029;-61
2023/04/22 09:14:44;;;;;;;3.00;2.17;;;;;;;;;;5028934;28;20095;-61
2023/04/22 09:17:11;;;;;;;3.63;2.53;;;;;;;;;;5029043;28;20049;-62
2023/04/22 09:19:38;;;;;;;3.40;2.57;;;;;;;;;;5028900;28;20021;-61
2023/04/22 09:22:05;;;;;;;3.60;2.53;;;;;;;;;;5029476;28;20079;-62
2023/04/22 09:24:32;;;;;;;4.13;2.07;;;;;;;;;;5033473;28;20057;-62
2023/04/22 09:27:02;;;;;;;4.70;3.23;;;;;;;;;;5033824;28;20021;-62
2023/04/22 09:29:30;;;;;;;3.17;2.73;;;;;;;;;;5033551;28;21886;-62
2023/04/22 09:31:57;;;;;;;5.93;4.00;;;;;;;;;;5033699;28;20033;-61
2023/04/22 09:34:24;;;;;;;3.43;2.43;;;;;;;;;;5032710;28;20056;-61
2023/04/22 09:36:51;;;;;;;3.40;2.73;;;;;;;;;;5028456;28;20025;-62
2023/04/22 09:39:17;;;;;;;4.60;2.97;;;;;;;;;;5028632;28;20087;-62
2023/04/22 09:41:44;;;;;;;3.67;2.20;;;;;;;;;;5028134;28;20032;-62
2023/04/22 09:44:15;;;;;;;4.13;2.77;;;;;;;;;;5028731;28;20146;-62
2023/04/22 09:46:43;;;;;;;3.87;2.63;;;;;;;;;;5033292;28;20479;-62
2023/04/22 09:49:09;;;;;;;4.33;2.90;;;;;;;;;;5033395;28;20030;-62
2023/04/22 09:51:41;;;;;;;6.77;2.90;;;;;;;;;;5033291;28;20037;-61
2023/04/22 09:54:09;;;;;;;4.83;3.00;;;;;;;;;;5033084;28;20104;-61
2023/04/22 09:56:42;;;;;;;18.00;4.93;;;;;;;;;;5031932;28;20426;-62
2023/04/22 09:59:09;;;;;;;6.00;3.53;;;;;;;;;;5028327;28;20030;-62
2023/04/22 10:01:38;;;;;;;12.63;3.43;;;;;;;;;;5028168;28;20025;-62
2023/04/22 10:04:04;;;;;;;4.10;2.03;;;;;;;;;;5028131;28;20040;-62
2023/04/22 10:06:32;;;;;;;5.80;3.10;;;;;;;;;;5027863;28;20550;-62
2023/04/22 10:09:02;;;;;;;11.43;3.10;;;;;;;;;;5032693;28;20112;-62
2023/04/22 10:11:29;;;;;;;5.40;2.53;;;;;;;;;;5032201;28;20033;-62
2023/04/22 10:13:56;;;;;;;3.80;3.00;;;;;;;;;;5032994;28;20112;-62
2023/04/22 10:16:23;;;;;;;2.30;1.90;;;;;;;;;;5032974;28;20101;-62
2023/04/22 10:18:51;;;;;;;3.67;1.67;;;;;;;;;;5032014;28;20025;-62
2023/04/22 10:21:19;;;;;;;3.07;2.50;;;;;;;;;;5027706;28;20022;-62
2023/04/22 10:23:47;;;;;;;3.17;2.30;;;;;;;;;;5027787;28;20025;-62
2023/04/22 10:26:33;;;;;;;2.87;2.23;;;;;;;;;;5027660;28;20025;-62
2023/04/22 10:29:00;;;;;;;4.80;2.73;;;;;;;;;;5028312;28;20108;-62
2023/04/22 10:31:27;;;;;;;3.07;2.10;;;;;;;;;;5032591;28;20033;-62
2023/04/22 10:34:09;;;;;;;2.33;1.90;;;;;;;;;;5032576;28;20737;-62
2023/04/22 10:36:52;;;;;;;3.40;2.57;;;;;;;;;;5032367;28;20028;-62
2023/04/22 10:39:20;;;;;;;3.33;1.97;;;;;;;;;;5032723;28;20460;-62
2023/04/22 10:41:53;;;;;;;3.60;1.93;;;;;;;;;;5030353;28;20606;-62
2023/04/22 10:44:21;;;;;;;3.93;1.97;;;;;;;;;;5027466;28;20029;-63
2023/04/22 10:46:51;;;;;;;8.10;2.10;;;;;;;;;;5027312;28;20026;-62
2023/04/22 10:49:20;;;;;;;2.20;1.23;;;;;;;;;;5027408;28;20033;-62
2023/04/22 10:51:50;;;;;;;6.13;2.37;;;;;;;;;;5029480;28;20044;-62
2023/04/22 10:54:26;;;;;;;3.43;2.17;;;;;;;;;;5032379;28;20021;-62
2023/04/22 10:57:02;;;;;;;1.73;1.50;;;;;;;;;;5032503;28;20029;-62
2023/04/22 10:59:29;;;;;;;2.77;2.30;;;;;;;;;;5032016;28;20599;-62
2023/04/22 11:02:01;;;;;;;2.90;1.90;;;;;;;;;;5031946;28;20053;-62
2023/04/22 11:04:28;;;;;;;7.33;1.97;;;;;;;;;;5029490;28;20029;-62
2023/04/22 11:07:14;;;;;;;3.60;2.23;;;;;;;;;;5027283;28;20470;-62
2023/04/22 11:09:41;;;;;;;2.03;1.47;;;;;;;;;;5026885;28;20033;-62
2023/04/22 11:12:43;;;;;;;1.97;1.57;;;;;;;;;;5027069;28;20108;-62
2023/04/22 11:15:14;;;;;;;5.73;2.30;;;;;;;;;;4970431;28;20381;-62
2023/04/22 11:17:44;;;;;;;2.23;1.77;;;;;;;;;;5021734;28;20399;-62
2023/04/22 11:20:12;;;;;;;3.17;2.00;;;;;;;;;;5036023;28;20032;-62
2023/04/22 11:22:42;;;;;;;2.73;2.03;;;;;;;;;;5036308;28;20375;-62
2023/04/22 11:25:09;;;;;;;1.77;1.43;;;;;;;;;;5036028;28;20026;-62
2023/04/22 11:27:37;;;;;;;11.17;2.70;;;;;;;;;;5031105;28;20025;-62
2023/04/22 11:30:19;;;;;;;2.13;1.53;;;;;;;;;;5031066;28;20033;-62
2023/04/22 11:32:47;;;;;;;1.77;1.47;;;;;;;;;;5030990;28;20099;-62
2023/04/22 11:35:18;;;;;;;8.83;1.90;;;;;;;;;;5030981;28;20097;-62
2023/04/22 11:37:49;;;;;;;2.30;1.93;;;;;;;;;;5035509;28;20474;-63
2023/04/22 11:40:20;;;;;;;2.10;1.63;;;;;;;;;;5035824;28;20029;-63
2023/04/22 11:42:48;;;;;;;1.73;1.43;;;;;;;;;;5035461;28;20109;-63
2023/04/22 11:45:15;;;;;;;2.20;1.70;;;;;;;;;;5035712;28;20026;-62
2023/04/22 11:47:43;;;;;;;2.30;1.67;;;;;;;;;;5035574;28;20350;-62
2023/04/22 11:50:12;;;;;;;5.43;2.53;;;;;;;;;;5030430;28;20053;-62
2023/04/22 11:52:55;;;;;;;4.13;2.33;;;;;;;;;;5030744;28;20022;-62
2023/04/22 11:55:29;;;;;;;3.27;1.77;;;;;;;;;;5030042;28;20045;-63
2023/04/22 11:57:59;;;;;;;2.53;1.87;;;;;;;;;;5031015;28;20104;-62
2023/04/22 12:00:30;;;;;;;3.20;2.27;;;;;;;;;;5035421;28;20033;-62
2023/04/22 12:03:01;;;;;;;2.10;1.47;;;;;;;;;;5035437;28;20092;-62
2023/04/22 12:05:37;;;;;;;4.73;2.63;;;;;;;;;;5035342;28;20033;-62
2023/04/22 12:08:07;;;;;;;2.10;1.70;;;;;;;;;;5035196;28;20034;-62
2023/04/22 12:10:34;;;;;;;7.17;2.30;;;;;;;;;;5033245;28;20109;-62
2023/04/22 12:13:01;;;;;;;3.93;2.40;;;;;;;;;;5029803;28;20041;-63
2023/04/22 12:15:37;;;;;;;2.07;1.57;;;;;;;;;;5030086;28;20048;-62
2023/04/22 12:18:03;;;;;;;1.37;1.17;;;;;;;;;;5029958;28;20025;-62
2023/04/22 12:20:34;;;;;;;1.80;1.53;;;;;;;;;;5030645;28;20104;-62
2023/04/22 12:23:01;;;;;;;1.87;1.33;;;;;;;;;;5034732;28;20101;-62
2023/04/22 12:25:28;;;;;;;2.30;2.00;;;;;;;;;;5034893;28;20020;-62
2023/04/22 12:27:56;;;;;;;1.27;1.17;;;;;;;;;;5034731;28;20104;-62
2023/04/22 12:30:23;;;;;;;2.63;1.10;;;;;;;;;;5033746;28;20041;-62
2023/04/22 12:32:50;;;;;;;2.57;2.07;;;;;;;;;;5033104;28;20033;-62
2023/04/22 12:35:17;;;;;;;1.93;1.57;;;;;;;;;;5029599;28;20372;-62
2023/04/22 12:37:44;;;;;;;4.27;2.10;;;;;;;;;;5029808;28;20021;-62
2023/04/22 12:40:11;;;;;;;22.20;2.33;;;;;;;;;;5029674;28;20414;-62
2023/04/22 12:42:37;;;;;;;3.00;2.40;;;;;;;;;;5030424;28;20021;-62
2023/04/22 12:45:04;;;;;;;2.63;2.10;;;;;;;;;;5034438;28;20531;-63
2023/04/22 12:47:31;;;;;;;2.97;2.47;;;;;;;;;;5034610;28;20026;-62
2023/04/22 12:50:00;;;;;;;5.73;2.13;;;;;;;;;;5034174;28;20033;-62
2023/04/22 12:52:27;;;;;;;2.87;2.30;;;;;;;;;;5034043;28;20479;-62
2023/04/22 12:54:53;;;;;;;2.87;2.47;;;;;;;;;;5033163;28;20476;-62
2023/04/22 12:57:20;;;;;;;4.07;2.67;;;;;;;;;;5029290;28;20037;-62
2023/04/22 12:59:47;;;;;;;3.47;2.80;;;;;;;;;;5029305;28;20115;-62
2023/04/22 13:02:14;;;;;;;3.27;2.40;;;;;;;;;;5029125;28;20028;-62
2023/04/22 13:04:41;;;;;;;3.07;2.73;;;;;;;;;;5029743;28;20108;-62
2023/04/22 13:07:07;;;;;;;2.67;1.97;;;;;;;;;;5034048;28;20021;-62
2023/04/22 13:09:34;;;;;;;2.90;2.00;;;;;;;;;;5033507;28;20064;-62
2023/04/22 13:12:01;;;;;;;3.47;2.30;;;;;;;;;;5034023;28;20495;-62
2023/04/22 13:14:28;;;;;;;7.13;4.73;;;;;;;;;;5033879;28;20037;-62
2023/04/22 13:16:56;;;;;;;13.13;6.87;;;;;;;;;;5033184;28;20032;-62
2023/04/22 13:19:24;;;;;;;9.30;5.07;;;;;;;;;;5028650;28;20083;-62
2023/04/22 13:21:51;;;;;;;5.73;3.77;;;;;;;;;;5028907;28;20083;-62
2023/04/22 13:24:18;;;;;;;3.93;3.03;;;;;;;;;;5028786;28;20025;-62
2023/04/22 13:26:45;;;;;;;2.93;2.40;;;;;;;;;;5028546;28;20033;-63
2023/04/22 13:29:13;;;;;;;8.13;3.60;;;;;;;;;;5033724;28;20037;-62
2023/04/22 13:31:43;;;;;;;3.20;2.47;;;;;;;;;;5033583;28;20041;-63
2023/04/22 13:34:11;;;;;;;3.57;2.33;;;;;;;;;;5033736;28;20021;-62
2023/04/22 13:36:37;;;;;;;2.87;2.13;;;;;;;;;;5033588;28;20068;-62
2023/04/22 13:39:05;;;;;;;13.27;2.23;;;;;;;;;;5032825;28;20053;-63
2023/04/22 13:41:31;;;;;;;3.13;1.83;;;;;;;;;;5028032;28;20120;-62
2023/04/22 13:43:58;;;;;;;5.47;2.30;;;;;;;;;;5028443;28;20444;-62
2023/04/22 13:46:26;;;;;;;10.23;2.30;;;;;;;;;;5028662;28;20033;-63
2023/04/22 13:48:53;;;;;;;1.70;1.50;;;;;;;;;;5028226;28;20075;-63
2023/04/22 13:51:20;;;;;;;1.83;1.30;;;;;;;;;;5033041;28;20033;-63
2023/04/22 13:53:47;;;;;;;3.20;2.10;;;;;;;;;;5033119;28;20101;-62
2023/04/22 13:56:14;;;;;;;3.50;1.73;;;;;;;;;;5033055;28;20026;-62
2023/04/22 13:58:41;;;;;;;1.47;1.30;;;;;;;;;;5032798;28;20029;-63
2023/04/22 14:01:08;;;;;;;2.30;1.37;;;;;;;;;;5032999;28;20029;-63
2023/04/22 14:03:36;;;;;;;1.53;1.20;;;;;;;;;;5028026;28;20029;-62
2023/04/22 14:06:03;;;;;;;2.20;1.33;;;;;;;;;;5027986;28;20028;-63
2023/04/22 14:08:30;;;;;;;2.87;1.67;;;;;;;;;;5027999;28;20013;-63
2023/04/22 14:10:58;;;;;;;4.20;2.03;;;;;;;;;;5027886;28;20030;-63
2023/04/22 14:13:26;;;;;;;2.17;1.57;;;;;;;;;;5032482;28;20045;-63
2023/04/22 14:15:52;;;;;;;2.53;1.40;;;;;;;;;;5032613;28;20472;-63
2023/04/22 14:18:22;;;;;;;0.83;0.70;;;;;;;;;;5032906;28;20032;-62
2023/04/22 14:20:49;;;;;;;2.13;1.40;;;;;;;;;;5032672;28;20114;-63
2023/04/22 14:23:16;;;;;;;1.30;1.13;;;;;;;;;;5032766;28;20049;-63
2023/04/22 14:25:46;;;;;;;4.87;1.97;;;;;;;;;;5027653;28;20051;-63
2023/04/22 14:28:13;;;;;;;3.30;1.87;;;;;;;;;;5027364;28;20032;-63
2023/04/22 14:30:41;;;;;;;1.53;1.33;;;;;;;;;;5027226;28;20706;-63
2023/04/22 14:33:08;;;;;;;2.07;1.40;;;;;;;;;;5027359;28;20037;-63
2023/04/22 14:35:35;;;;;;;1.87;1.30;;;;;;;;;;5032244;28;20108;-63
2023/04/22 14:38:03;;;;;;;1.80;1.30;;;;;;;;;;5032513;28;20098;-63
2023/04/22 14:40:30;;;;;;;1.77;1.23;;;;;;;;;;5032512;28;20060;-63
2023/04/22 14:42:59;;;;;;;2.63;1.57;;;;;;;;;;5032421;28;20472;-63
2023/04/22 14:45:28;;;;;;;2.53;1.30;;;;;;;;;;5032068;28;20419;-63
2023/04/22 14:47:55;;;;;;;3.47;2.03;;;;;;;;;;5027326;28;20400;-63